Time;durP1;ratioP1;P1;durP2;ratioP2;P2;SDS_P1;SDS_P2;PMS_P1;PMS_P2;Temp;Humidity;BMP_temperature;BMP_pressure;BME280_temperature;BME280_humidity;BME280_pressure;Samples;Min_cycle;Max_cycle;Signal;HPM_P1;HPM_P2
2022/12/11 00:02:19;;;;;;;30.43;27.10;;;0.70;99.90;;;;;;5097594;28;20265;-52
2022/12/11 00:04:44;;;;;;;29.13;26.02;;;0.70;99.90;;;;;;5098308;28;20446;-54
2022/12/11 00:07:10;;;;;;;30.40;26.10;;;0.70;99.90;;;;;;5098257;28;20182;-54
2022/12/11 00:09:36;;;;;;;28.80;25.80;;;0.60;99.90;;;;;;5098242;28;20188;-55
2022/12/11 00:12:01;;;;;;;35.23;27.80;;;0.60;99.90;;;;;;5101896;28;20182;-53
2022/12/11 00:14:28;;;;;;;30.47;26.20;;;0.60;99.90;;;;;;5102630;28;20383;-52
2022/12/11 00:16:54;;;;;;;31.92;27.33;;;0.70;99.90;;;;;;5101806;28;20677;-55
2022/12/11 00:19:19;;;;;;;31.83;26.67;;;0.60;99.90;;;;;;5101752;28;20182;-56
2022/12/11 00:21:45;;;;;;;34.13;26.37;;;0.70;99.90;;;;;;5102439;28;20449;-54
2022/12/11 00:24:11;;;;;;;30.10;26.77;;;0.60;99.90;;;;;;5101689;28;20241;-53
2022/12/11 00:26:37;;;;;;;30.77;27.43;;;0.60;99.90;;;;;;5099177;28;20596;-54
2022/12/11 00:29:03;;;;;;;32.10;26.48;;;0.60;99.90;;;;;;5102074;28;20208;-56
2022/12/11 00:31:29;;;;;;;32.60;28.80;;;0.60;99.90;;;;;;5102371;28;20219;-51
2022/12/11 00:33:59;;;;;;;35.38;28.10;;;0.60;99.90;;;;;;5102697;28;20862;-55
2022/12/11 00:36:26;;;;;;;33.90;28.77;;;0.60;99.90;;;;;;5102190;28;20230;-57
2022/12/11 00:38:53;;;;;;;35.38;28.92;;;0.60;99.90;;;;;;5102323;28;20206;-53
2022/12/11 00:41:19;;;;;;;40.42;31.10;;;0.60;99.90;;;;;;5100192;28;20189;-50
2022/12/11 00:43:45;;;;;;;34.53;29.95;;;0.60;99.90;;;;;;5101869;28;20192;-52
2022/12/11 00:46:11;;;;;;;37.30;29.55;;;0.50;99.90;;;;;;5102384;27;20189;-50
2022/12/11 00:48:37;;;;;;;37.35;31.20;;;0.60;99.90;;;;;;5101927;28;20194;-55
2022/12/11 00:51:04;;;;;;;36.88;30.65;;;0.50;99.90;;;;;;5100787;28;20237;-55
2022/12/11 00:53:29;;;;;;;39.50;31.15;;;0.60;99.90;;;;;;5102114;28;20186;-52
2022/12/11 00:55:55;;;;;;;40.43;30.90;;;0.60;99.90;;;;;;5101830;28;20216;-51
2022/12/11 00:58:21;;;;;;;40.77;30.60;;;0.60;99.90;;;;;;5102147;28;20264;-56
2022/12/11 01:00:48;;;;;;;37.83;31.20;;;0.60;99.90;;;;;;5101092;28;20180;-55
2022/12/11 01:03:15;;;;;;;33.58;28.75;;;0.60;99.90;;;;;;5101764;28;20506;-55
2022/12/11 01:05:49;;;;;;;36.90;30.08;;;0.60;99.90;;;;;;5100877;28;20646;-55
2022/12/11 01:08:15;;;;;;;41.65;29.75;;;0.60;99.90;;;;;;5100522;28;20184;-52
2022/12/11 01:10:40;;;;;;;35.63;29.60;;;0.50;99.90;;;;;;5102627;28;20197;-55
2022/12/11 01:13:06;;;;;;;39.63;30.50;;;0.50;99.90;;;;;;5100738;28;20591;-54
2022/12/11 01:15:37;;;;;;;39.00;31.00;;;0.50;99.90;;;;;;5101408;28;20209;-53
2022/12/11 01:18:03;;;;;;;39.63;31.02;;;0.50;99.90;;;;;;5100719;28;20193;-51
2022/12/11 01:20:28;;;;;;;38.17;31.10;;;0.50;99.90;;;;;;5103273;28;20193;-55
2022/12/11 01:22:56;;;;;;;38.73;29.30;;;0.50;99.90;;;;;;5100342;28;20190;-54
2022/12/11 01:25:22;;;;;;;42.13;31.63;;;0.50;99.90;;;;;;5100597;28;20268;-53
2022/12/11 01:27:53;;;;;;;37.03;30.40;;;0.40;99.90;;;;;;5101514;28;20738;-55
2022/12/11 01:30:20;;;;;;;41.47;31.35;;;0.40;99.90;;;;;;5101566;28;20380;-54
2022/12/11 01:32:45;;;;;;;36.45;30.35;;;0.40;99.90;;;;;;5100972;28;20190;-55
2022/12/11 01:35:12;;;;;;;36.07;29.63;;;0.50;99.90;;;;;;5100619;28;20216;-54
2022/12/11 01:37:38;;;;;;;35.92;29.50;;;0.40;99.90;;;;;;5099631;28;20811;-54
2022/12/11 01:40:06;;;;;;;34.17;28.65;;;0.40;99.90;;;;;;5101371;28;20177;-50
2022/12/11 01:42:33;;;;;;;35.70;29.05;;;0.50;99.90;;;;;;5100789;28;20185;-55
2022/12/11 01:45:37;;;;;;;37.63;30.20;;;0.40;99.90;;;;;;5102292;28;20234;-55
2022/12/11 01:48:08;;;;;;;36.30;30.10;;;0.40;99.90;;;;;;5098467;28;20194;-52
2022/12/11 01:50:57;;;;;;;37.90;31.05;;;0.40;99.90;;;;;;5099921;27;20201;-55
2022/12/11 01:53:36;;;;;;;36.83;30.50;;;0.40;99.90;;;;;;5100644;28;20579;-53
2022/12/11 01:56:03;;;;;;;36.08;29.75;;;0.40;99.90;;;;;;5101691;28;20247;-54
2022/12/11 01:58:32;;;;;;;34.63;29.80;;;0.40;99.90;;;;;;5101355;28;20579;-53
2022/12/11 02:01:00;;;;;;;30.50;26.85;;;0.40;99.90;;;;;;5101740;28;20208;-50
2022/12/11 02:03:25;;;;;;;31.48;25.63;;;0.40;99.90;;;;;;5101308;28;20192;-55
2022/12/11 02:05:51;;;;;;;32.57;25.77;;;0.40;99.90;;;;;;5099750;28;20196;-51
2022/12/11 02:08:17;;;;;;;29.87;26.67;;;0.30;99.90;;;;;;5101571;28;20184;-51
2022/12/11 02:11:09;;;;;;;30.10;26.53;;;0.30;99.90;;;;;;5100613;28;20190;-53
2022/12/11 02:13:53;;;;;;;30.13;26.00;;;0.30;99.90;;;;;;5062587;28;20443;-47
2022/12/11 02:16:31;;;;;;;30.00;26.65;;;0.30;99.90;;;;;;5100443;28;20229;-48
2022/12/11 02:19:33;;;;;;;29.98;26.00;;;0.30;99.90;;;;;;5097939;28;20175;-48
2022/12/11 02:22:04;;;;;;;31.73;26.45;;;0.30;99.90;;;;;;5099886;28;20527;-49
2022/12/11 02:24:30;;;;;;;32.88;27.70;;;0.20;99.90;;;;;;5099725;28;20216;-48
2022/12/11 02:27:05;;;;;;;30.90;26.47;;;0.20;99.90;;;;;;5100236;28;20733;-51
2022/12/11 02:29:47;;;;;;;30.30;26.42;;;0.30;99.90;;;;;;5100397;28;20251;-46
2022/12/11 02:32:20;;;;;;;29.98;26.30;;;0.30;99.90;;;;;;5099523;28;20207;-52
2022/12/11 02:34:54;;;;;;;29.90;26.92;;;0.30;99.90;;;;;;5098865;28;20182;-48
2022/12/11 02:37:23;;;;;;;29.52;25.48;;;0.40;99.90;;;;;;5099019;28;20186;-48
2022/12/11 02:39:52;;;;;;;29.35;25.10;;;0.20;99.90;;;;;;5098572;28;20201;-51
2022/12/11 02:42:20;;;;;;;29.00;26.00;;;0.20;99.90;;;;;;5099208;28;20181;-47
2022/12/11 02:44:48;;;;;;;27.05;24.20;;;0.20;99.90;;;;;;5099364;28;20670;-48
2022/12/11 02:47:16;;;;;;;29.75;26.60;;;0.30;99.90;;;;;;5098083;28;20500;-48
2022/12/11 02:49:45;;;;;;;32.70;27.40;;;0.20;99.90;;;;;;5098916;28;20230;-48
2022/12/11 02:52:14;;;;;;;26.77;23.92;;;0.20;99.90;;;;;;5098255;28;20656;-48
2022/12/11 02:54:43;;;;;;;27.75;24.83;;;0.20;99.90;;;;;;5099576;28;20177;-49
2022/12/11 02:57:38;;;;;;;27.25;24.33;;;0.20;99.90;;;;;;5096965;28;20178;-48
2022/12/11 03:00:07;;;;;;;29.40;24.42;;;0.20;99.90;;;;;;5090931;28;20204;-47
2022/12/11 03:02:32;;;;;;;27.92;24.83;;;0.20;99.90;;;;;;5098481;28;20180;-50
2022/12/11 03:04:58;;;;;;;27.10;24.20;;;0.30;99.90;;;;;;5096396;28;20204;-50
2022/12/11 03:07:28;;;;;;;30.13;25.88;;;0.20;99.90;;;;;;5098176;28;20187;-50
2022/12/11 03:09:54;;;;;;;29.13;25.40;;;0.30;99.90;;;;;;5099569;28;20316;-51
2022/12/11 03:12:26;;;;;;;26.75;23.80;;;0.20;99.90;;;;;;5099445;28;20184;-50
2022/12/11 03:14:52;;;;;;;25.30;22.67;;;0.10;99.90;;;;;;5100359;28;20636;-51
2022/12/11 03:18:04;;;;;;;25.90;23.10;;;0.10;99.90;;;;;;5096056;28;20294;-50
2022/12/11 03:20:36;;;;;;;27.33;23.77;;;0.10;99.90;;;;;;5097914;28;20980;-52
2022/12/11 03:23:07;;;;;;;28.35;23.25;;;0.10;99.90;;;;;;5095905;28;20188;-49
2022/12/11 03:25:48;;;;;;;27.10;23.83;;;0.10;99.90;;;;;;5097991;28;20184;-54
2022/12/11 03:28:19;;;;;;;26.80;23.17;;;0.10;99.90;;;;;;5099074;28;20511;-49
2022/12/11 03:30:48;;;;;;;28.23;25.17;;;0.10;99.90;;;;;;5098496;28;20259;-49
2022/12/11 03:33:34;;;;;;;26.50;23.65;;;0.10;99.90;;;;;;5099077;28;20186;-51
2022/12/11 03:36:07;;;;;;;25.42;22.40;;;0.00;99.90;;;;;;5097805;28;20239;-46
2022/12/11 03:38:38;;;;;;;25.33;22.52;;;0.00;99.90;;;;;;5099618;28;20179;-50
2022/12/11 03:41:07;;;;;;;26.67;23.50;;;0.00;99.90;;;;;;5098565;28;20637;-47
2022/12/11 03:43:34;;;;;;;27.10;23.35;;;0.00;99.90;;;;;;5098114;28;20939;-46
2022/12/11 03:46:00;;;;;;;27.50;24.60;;;0.00;99.90;;;;;;5098246;28;20188;-46
2022/12/11 03:48:31;;;;;;;27.02;24.10;;;0.00;99.90;;;;;;5099790;28;20184;-46
2022/12/11 03:50:59;;;;;;;30.90;24.80;;;-0.10;99.90;;;;;;5097559;28;20177;-49
2022/12/11 03:53:26;;;;;;;30.67;24.25;;;0.00;99.90;;;;;;5097993;28;20193;-47
2022/12/11 03:55:53;;;;;;;29.80;26.00;;;-0.10;99.90;;;;;;5098204;28;20600;-51
2022/12/11 03:58:18;;;;;;;30.00;24.52;;;-0.10;99.90;;;;;;5097133;28;20180;-47
2022/12/11 04:00:44;;;;;;;29.50;25.90;;;-0.10;99.90;;;;;;5096804;28;20236;-51
2022/12/11 04:03:13;;;;;;;26.60;23.73;;;0.00;99.90;;;;;;5097889;28;20180;-47
2022/12/11 04:05:43;;;;;;;29.50;24.98;;;-0.10;99.90;;;;;;5098535;28;20348;-51
2022/12/11 04:08:09;;;;;;;31.83;25.15;;;-0.10;99.90;;;;;;5098309;28;20188;-57
2022/12/11 04:10:35;;;;;;;31.17;25.10;;;-0.10;99.90;;;;;;5098966;28;20201;-53
2022/12/11 04:13:01;;;;;;;30.90;25.40;;;0.00;99.90;;;;;;5097802;28;20693;-46
2022/12/11 04:15:26;;;;;;;32.57;26.50;;;0.00;99.90;;;;;;5098283;28;21089;-48
2022/12/11 04:26:06;;;;;;;27.92;24.35;;;-0.10;99.90;;;;;;5097365;28;20301;-49
2022/12/11 04:28:32;;;;;;;31.35;25.17;;;-0.10;99.90;;;;;;5098671;28;20216;-49
2022/12/11 04:30:58;;;;;;;29.40;26.23;;;-0.10;99.90;;;;;;5095301;28;20911;-51
2022/12/11 04:33:23;;;;;;;30.70;25.10;;;-0.20;99.90;;;;;;5096448;28;20869;-50
2022/12/11 04:35:49;;;;;;;31.67;25.23;;;-0.20;99.90;;;;;;5097609;28;20339;-51
2022/12/11 04:38:15;;;;;;;28.90;23.50;;;-0.20;99.90;;;;;;5098321;28;20184;-48
2022/12/11 04:40:40;;;;;;;31.33;24.50;;;-0.20;99.90;;;;;;5098672;28;20658;-50
2022/12/11 04:43:06;;;;;;;28.20;23.60;;;-0.20;99.90;;;;;;5097195;28;20558;-52
2022/12/11 04:45:32;;;;;;;29.60;25.40;;;-0.10;99.90;;;;;;5098502;28;20184;-48
2022/12/11 04:47:58;;;;;;;30.07;25.47;;;-0.20;99.90;;;;;;5097789;28;20587;-49
2022/12/11 04:50:24;;;;;;;29.42;26.23;;;-0.20;99.90;;;;;;5098633;28;20180;-45
2022/12/11 04:52:53;;;;;;;26.95;23.85;;;-0.20;99.90;;;;;;5096987;28;20220;-48
2022/12/11 04:55:18;;;;;;;28.00;24.23;;;-0.20;99.90;;;;;;5097786;28;20209;-55
2022/12/11 04:57:44;;;;;;;29.87;25.10;;;-0.20;99.90;;;;;;5100204;28;20174;-50
2022/12/11 05:00:11;;;;;;;31.37;24.97;;;-0.20;99.90;;;;;;5101450;28;20571;-52
2022/12/11 05:02:38;;;;;;;28.27;25.27;;;-0.10;99.90;;;;;;5098368;28;20610;-49
2022/12/11 05:05:05;;;;;;;28.85;24.73;;;-0.10;99.90;;;;;;5102934;28;20188;-51
2022/12/11 05:07:31;;;;;;;28.83;25.08;;;-0.20;99.90;;;;;;5101168;28;20233;-51
2022/12/11 05:09:57;;;;;;;32.80;25.80;;;-0.20;99.90;;;;;;5101741;28;20173;-50
2022/12/11 05:12:22;;;;;;;29.30;26.13;;;-0.20;99.90;;;;;;5101740;28;20445;-53
2022/12/11 05:14:53;;;;;;;25.17;22.47;;;-0.20;99.90;;;;;;5100097;28;20457;-49
2022/12/11 05:17:20;;;;;;;26.95;23.48;;;-0.10;99.90;;;;;;5101886;28;20233;-50
2022/12/11 05:19:48;;;;;;;26.95;23.77;;;-0.10;99.90;;;;;;5100247;28;20213;-51
2022/12/11 05:22:15;;;;;;;26.33;23.15;;;-0.10;99.90;;;;;;5101725;28;20184;-49
2022/12/11 05:24:41;;;;;;;25.20;22.60;;;-0.20;99.90;;;;;;5101583;28;20196;-49
2022/12/11 05:27:06;;;;;;;23.90;21.40;;;-0.20;99.90;;;;;;5100939;28;20188;-50
2022/12/11 05:29:32;;;;;;;23.87;21.27;;;-0.20;99.90;;;;;;5100718;28;20249;-51
2022/12/11 05:31:57;;;;;;;25.57;22.40;;;-0.20;99.90;;;;;;5100801;28;20319;-50
2022/12/11 05:34:23;;;;;;;24.63;22.30;;;-0.30;99.90;;;;;;5099956;28;20822;-50
2022/12/11 05:36:49;;;;;;;24.60;22.17;;;-0.20;99.90;;;;;;5100947;28;20211;-47
2022/12/11 05:39:15;;;;;;;23.80;21.35;;;-0.20;99.90;;;;;;5100352;28;20188;-48
2022/12/11 05:41:40;;;;;;;24.70;22.10;;;-0.20;99.90;;;;;;5099757;28;20220;-46
2022/12/11 05:44:06;;;;;;;23.70;21.40;;;-0.20;99.90;;;;;;5101278;28;20514;-50
2022/12/11 05:46:32;;;;;;;24.07;21.53;;;-0.20;99.90;;;;;;5100293;27;20252;-46
2022/12/11 05:49:00;;;;;;;25.07;22.20;;;-0.20;99.90;;;;;;5101939;28;20199;-49
2022/12/11 05:51:27;;;;;;;26.83;22.52;;;-0.20;99.90;;;;;;5099439;28;20718;-47
2022/12/11 05:53:54;;;;;;;27.60;22.65;;;-0.20;99.90;;;;;;5100258;28;20352;-49
2022/12/11 05:56:26;;;;;;;26.90;23.50;;;-0.30;99.90;;;;;;5099886;28;20304;-54
2022/12/11 05:58:52;;;;;;;29.63;24.40;;;-0.30;99.90;;;;;;5100107;28;20545;-48
2022/12/11 06:01:20;;;;;;;27.20;22.52;;;-0.30;99.90;;;;;;5100278;28;20233;-46
2022/12/11 06:03:46;;;;;;;27.05;22.70;;;-0.30;99.90;;;;;;5099421;28;20648;-52
2022/12/11 06:06:12;;;;;;;28.17;23.60;;;-0.20;99.90;;;;;;5098361;28;20565;-50
2022/12/11 06:08:38;;;;;;;27.80;22.00;;;-0.20;99.90;;;;;;5099433;27;20184;-48
2022/12/11 06:11:04;;;;;;;27.40;23.00;;;-0.30;99.90;;;;;;5099190;28;20486;-48
2022/12/11 06:13:30;;;;;;;29.92;23.70;;;-0.30;99.90;;;;;;5098328;28;20441;-49
2022/12/11 06:16:03;;;;;;;29.53;24.40;;;-0.30;99.90;;;;;;5101203;28;20208;-50
2022/12/11 06:18:29;;;;;;;25.52;22.50;;;-0.40;99.90;;;;;;5100637;28;20193;-48
2022/12/11 06:20:54;;;;;;;24.70;22.10;;;-0.40;99.90;;;;;;5099916;28;20184;-51
2022/12/11 06:23:20;;;;;;;26.10;22.70;;;-0.50;99.90;;;;;;5099321;28;20774;-51
2022/12/11 06:25:46;;;;;;;26.77;22.40;;;-0.40;99.90;;;;;;5100383;28;20188;-49
2022/12/11 06:28:11;;;;;;;26.67;22.90;;;-0.40;99.90;;;;;;5100233;28;20219;-46
2022/12/11 06:30:37;;;;;;;25.07;22.47;;;-0.50;99.90;;;;;;5099621;28;20187;-51
2022/12/11 06:33:03;;;;;;;25.93;21.27;;;-0.50;99.90;;;;;;5100573;28;20271;-51
2022/12/11 06:35:29;;;;;;;22.83;20.38;;;-0.50;99.90;;;;;;5097932;28;20645;-52
2022/12/11 06:37:54;;;;;;;22.43;20.13;;;-0.60;99.90;;;;;;5100357;28;20177;-51
2022/12/11 06:40:20;;;;;;;23.40;20.93;;;-0.60;99.90;;;;;;5099965;28;20198;-50
2022/12/11 06:42:46;;;;;;;24.03;21.33;;;-0.60;99.90;;;;;;5099231;28;20184;-53
2022/12/11 06:45:11;;;;;;;26.10;20.27;;;-0.70;99.90;;;;;;5099674;28;20192;-47
2022/12/11 06:47:37;;;;;;;24.50;20.67;;;-0.80;99.90;;;;;;5099255;28;20180;-47
2022/12/11 06:50:03;;;;;;;23.67;21.03;;;-0.80;99.90;;;;;;5099981;28;20199;-53
2022/12/11 06:52:28;;;;;;;22.65;20.35;;;-0.80;99.90;;;;;;5099543;28;20195;-49
2022/12/11 06:54:54;;;;;;;22.63;20.20;;;-0.80;99.90;;;;;;5100723;28;20718;-51
2022/12/11 06:57:20;;;;;;;24.17;21.25;;;-0.80;99.90;;;;;;5100848;28;20179;-49
2022/12/11 06:59:46;;;;;;;24.00;20.73;;;-0.80;99.90;;;;;;5100352;28;20247;-52
2022/12/11 07:02:13;;;;;;;22.03;19.63;;;-0.80;99.90;;;;;;5100817;28;20435;-49
2022/12/11 07:04:39;;;;;;;21.48;19.17;;;-0.80;99.90;;;;;;5100407;27;20184;-50
2022/12/11 07:07:05;;;;;;;23.48;19.45;;;-0.90;99.90;;;;;;5098910;28;20184;-49
2022/12/11 07:09:31;;;;;;;24.02;19.75;;;-0.90;99.90;;;;;;5100136;28;20557;-50
2022/12/11 07:11:57;;;;;;;22.23;19.80;;;-0.90;99.90;;;;;;5099533;28;20183;-50
2022/12/11 07:14:22;;;;;;;22.73;20.37;;;-0.90;99.90;;;;;;5098449;28;20217;-52
2022/12/11 07:16:48;;;;;;;21.43;19.07;;;-0.90;99.90;;;;;;5098763;28;20474;-52
2022/12/11 07:19:14;;;;;;;25.57;20.53;;;-0.80;99.90;;;;;;5097567;28;21064;-51
2022/12/11 07:21:39;;;;;;;24.90;21.40;;;-0.90;99.90;;;;;;5099467;28;20441;-53
2022/12/11 07:24:05;;;;;;;24.97;19.57;;;-0.90;99.90;;;;;;5097606;28;20246;-52
2022/12/11 07:26:31;;;;;;;25.10;21.33;;;-0.90;99.90;;;;;;5099591;28;20193;-50
2022/12/11 07:28:57;;;;;;;24.70;20.83;;;-0.90;99.90;;;;;;5098922;28;20199;-56
2022/12/11 07:31:24;;;;;;;22.48;20.10;;;-1.00;99.90;;;;;;5100274;28;20199;-56
2022/12/11 07:33:54;;;;;;;23.60;20.60;;;-1.00;99.90;;;;;;5099038;27;20642;-51
2022/12/11 07:36:21;;;;;;;21.92;19.73;;;-0.90;99.90;;;;;;5097604;28;20212;-48
2022/12/11 07:38:46;;;;;;;23.00;20.60;;;-0.90;99.90;;;;;;5096823;28;20194;-48
2022/12/11 07:41:13;;;;;;;23.97;21.23;;;-0.90;99.90;;;;;;5099243;28;20191;-54
2022/12/11 07:43:39;;;;;;;21.92;19.80;;;-0.90;99.90;;;;;;5099292;28;20183;-55
2022/12/11 07:46:14;;;;;;;23.33;20.93;;;-0.90;99.90;;;;;;5099799;28;20199;-57
2022/12/11 07:48:42;;;;;;;30.08;26.88;;;-0.90;99.90;;;;;;5099391;28;20195;-52
2022/12/11 07:51:25;;;;;;;22.77;20.25;;;-0.90;99.90;;;;;;5099133;28;20241;-48
2022/12/11 07:53:52;;;;;;;23.30;21.02;;;-0.80;99.90;;;;;;5099012;28;20176;-49
2022/12/11 07:56:18;;;;;;;22.90;20.08;;;-0.80;99.90;;;;;;5096722;28;20358;-51
2022/12/11 07:58:44;;;;;;;22.15;19.95;;;-0.80;99.90;;;;;;5099720;28;20752;-48
2022/12/11 08:01:12;;;;;;;23.23;20.75;;;-0.90;99.90;;;;;;5097892;28;20820;-48
2022/12/11 08:03:38;;;;;;;23.35;20.67;;;-0.80;99.90;;;;;;5098889;28;20183;-49
2022/12/11 08:06:04;;;;;;;22.42;20.27;;;-0.80;99.90;;;;;;5097739;28;20550;-51
2022/12/11 08:08:30;;;;;;;21.80;19.50;;;-0.80;99.90;;;;;;5099904;28;20200;-51
2022/12/11 08:10:59;;;;;;;22.63;19.50;;;-0.90;99.90;;;;;;5098926;28;20495;-54
2022/12/11 08:13:24;;;;;;;22.75;20.30;;;-0.90;99.90;;;;;;5099174;28;20216;-53
2022/12/11 08:15:50;;;;;;;23.17;20.70;;;-0.80;99.90;;;;;;5099028;28;20296;-54
2022/12/11 08:18:16;;;;;;;22.73;20.33;;;-0.90;99.90;;;;;;5098429;28;20191;-50
2022/12/11 08:20:41;;;;;;;22.87;20.50;;;-0.90;99.90;;;;;;5098359;28;20201;-48
2022/12/11 08:23:07;;;;;;;21.70;19.50;;;-0.90;99.90;;;;;;5099488;28;20193;-53
2022/12/11 08:25:32;;;;;;;21.77;19.47;;;-0.90;99.90;;;;;;5098750;28;20280;-53
2022/12/11 08:27:58;;;;;;;21.80;18.20;;;-0.90;99.90;;;;;;5099048;28;20434;-53
2022/12/11 08:30:23;;;;;;;20.27;18.17;;;-0.90;99.90;;;;;;5097920;28;20181;-50
2022/12/11 08:32:49;;;;;;;22.57;20.23;;;-0.90;99.90;;;;;;5100186;28;20730;-53
2022/12/11 08:35:15;;;;;;;20.43;18.30;;;-1.00;99.90;;;;;;5102518;28;20226;-52
2022/12/11 08:37:41;;;;;;;21.50;18.60;;;-1.00;99.90;;;;;;5099465;28;20316;-49
2022/12/11 08:40:08;;;;;;;21.60;18.40;;;-1.00;99.90;;;;;;5101182;28;20180;-48
2022/12/11 08:42:34;;;;;;;21.05;18.60;;;-0.90;99.90;;;;;;5102430;28;20716;-54
2022/12/11 08:45:00;;;;;;;29.27;24.10;;;-1.10;99.90;;;;;;5087961;28;21137;-52
2022/12/11 08:47:26;;;;;;;22.37;20.00;;;-1.10;99.90;;;;;;5102107;28;20669;-51
2022/12/11 08:49:52;;;;;;;20.38;18.20;;;-1.10;99.90;;;;;;5102624;28;20260;-54
2022/12/11 08:52:17;;;;;;;22.50;20.30;;;-1.00;99.90;;;;;;5102957;28;20171;-55
2022/12/11 08:54:43;;;;;;;20.93;18.73;;;-1.00;99.90;;;;;;5101269;28;20176;-53
2022/12/11 08:57:08;;;;;;;20.10;18.13;;;-1.00;99.90;;;;;;5101102;28;20219;-51
2022/12/11 08:59:34;;;;;;;22.83;19.80;;;-1.10;99.90;;;;;;5101347;28;20177;-55
2022/12/11 09:02:00;;;;;;;20.63;18.37;;;-1.00;99.90;;;;;;5103589;28;20183;-54
2022/12/11 09:04:25;;;;;;;21.23;19.03;;;-1.00;99.90;;;;;;5101199;28;20640;-55
2022/12/11 09:06:51;;;;;;;20.07;17.93;;;-1.00;99.90;;;;;;5102949;28;20184;-52
2022/12/11 09:09:17;;;;;;;20.27;18.17;;;-1.00;99.90;;;;;;5102841;28;20184;-51
2022/12/11 09:11:43;;;;;;;25.13;21.58;;;-0.90;99.90;;;;;;5102776;28;20223;-55
2022/12/11 09:14:09;;;;;;;19.03;17.10;;;-1.00;99.90;;;;;;5100105;28;20282;-55
2022/12/11 09:16:38;;;;;;;21.27;19.07;;;-1.10;99.90;;;;;;5102057;28;20991;-54
2022/12/11 09:19:06;;;;;;;25.05;22.02;;;-1.00;99.90;;;;;;5101538;28;20205;-54
2022/12/11 09:21:31;;;;;;;27.42;23.80;;;-1.00;99.90;;;;;;5098585;28;20233;-55
2022/12/11 09:24:00;;;;;;;21.07;18.67;;;-1.00;99.90;;;;;;5100602;28;20203;-51
2022/12/11 09:26:26;;;;;;;22.63;18.75;;;-1.10;99.90;;;;;;5102000;28;20553;-53
2022/12/11 09:28:52;;;;;;;23.67;19.92;;;-1.10;99.90;;;;;;5102925;28;20267;-52
2022/12/11 09:31:27;;;;;;;21.75;19.27;;;-1.10;99.90;;;;;;5100957;28;20280;-53
2022/12/11 09:34:01;;;;;;;21.67;19.38;;;-0.90;99.90;;;;;;5100915;28;20184;-51
2022/12/11 09:36:27;;;;;;;21.88;19.58;;;-0.90;99.90;;;;;;5100735;28;20250;-52
2022/12/11 09:38:53;;;;;;;26.17;19.48;;;-0.90;99.90;;;;;;5101216;28;20196;-54
2022/12/11 09:41:21;;;;;;;21.53;19.30;;;-0.90;99.90;;;;;;5102490;28;20184;-52
2022/12/11 09:43:50;;;;;;;24.08;19.25;;;-0.80;99.90;;;;;;5101459;28;20179;-55
2022/12/11 09:46:16;;;;;;;21.10;19.00;;;-0.70;99.90;;;;;;5100628;28;20179;-49
2022/12/11 09:48:47;;;;;;;21.80;18.50;;;-0.80;99.90;;;;;;5102398;28;20185;-51
2022/12/11 09:51:27;;;;;;;21.00;18.88;;;-0.80;99.90;;;;;;5101362;27;20191;-54
2022/12/11 09:53:56;;;;;;;19.80;17.50;;;-0.80;99.90;;;;;;5102245;28;20548;-52
2022/12/11 09:56:26;;;;;;;21.60;19.30;;;-0.90;99.90;;;;;;5095172;28;20209;-51
2022/12/11 09:58:51;;;;;;;21.27;19.17;;;-0.90;99.90;;;;;;5100397;28;20240;-51
2022/12/11 10:01:33;;;;;;;22.87;19.50;;;-0.80;99.90;;;;;;5100595;28;20180;-59
2022/12/11 10:04:31;;;;;;;20.00;17.88;;;-0.80;99.90;;;;;;5098558;28;20172;-53
2022/12/11 10:07:05;;;;;;;21.10;18.15;;;-0.70;99.90;;;;;;5081022;28;20594;-50
2022/12/11 10:09:48;;;;;;;21.63;18.58;;;-0.70;99.90;;;;;;5100553;28;20233;-48
2022/12/11 10:12:38;;;;;;;19.95;17.90;;;-0.70;99.90;;;;;;5100813;28;20184;-50
2022/12/11 10:15:04;;;;;;;19.75;17.73;;;-0.70;99.90;;;;;;5087950;28;20208;-52
2022/12/11 10:17:35;;;;;;;20.20;18.30;;;-0.60;99.90;;;;;;5100697;28;20496;-49
2022/12/11 10:20:29;;;;;;;19.42;17.42;;;-0.60;99.90;;;;;;5094252;28;20866;-51
2022/12/11 10:22:57;;;;;;;21.73;19.48;;;-0.70;99.90;;;;;;5092722;28;20245;-50
2022/12/11 10:25:31;;;;;;;21.90;19.55;;;-0.70;99.90;;;;;;5097033;28;20176;-52
2022/12/11 10:27:58;;;;;;;20.38;18.02;;;-0.60;99.90;;;;;;5094971;28;20791;-49
2022/12/11 10:30:39;;;;;;;22.00;19.50;;;-0.60;99.90;;;;;;5099200;28;20276;-48
2022/12/11 10:33:25;;;;;;;23.25;20.50;;;-0.50;99.90;;;;;;5099861;28;20183;-49
2022/12/11 10:35:52;;;;;;;21.45;19.17;;;-0.60;99.90;;;;;;5099663;28;20223;-47
2022/12/11 10:38:24;;;;;;;22.05;19.65;;;-0.60;99.90;;;;;;5100181;28;20191;-52
2022/12/11 10:40:54;;;;;;;20.77;18.60;;;-0.60;99.90;;;;;;5095241;28;20204;-49
2022/12/11 10:43:30;;;;;;;20.35;18.15;;;-0.50;99.90;;;;;;5100277;28;20687;-47
2022/12/11 10:45:57;;;;;;;22.23;18.90;;;-0.50;99.90;;;;;;5098634;28;20479;-51
2022/12/11 10:48:22;;;;;;;20.98;17.70;;;-0.30;99.90;;;;;;5099954;28;20806;-48
2022/12/11 10:51:04;;;;;;;20.30;18.40;;;-0.20;99.90;;;;;;5097199;28;20640;-53
2022/12/11 10:53:32;;;;;;;19.10;17.00;;;0.00;99.90;;;;;;5099127;28;20188;-46
2022/12/11 10:55:58;;;;;;;21.38;17.95;;;0.00;99.90;;;;;;5099359;28;20934;-49
2022/12/11 10:58:28;;;;;;;19.52;17.55;;;0.10;99.90;;;;;;5078927;28;20195;-53
2022/12/11 11:01:08;;;;;;;19.55;17.60;;;0.20;99.90;;;;;;5097922;28;20175;-47
2022/12/11 11:03:42;;;;;;;19.05;17.08;;;0.30;99.90;;;;;;5099067;28;20182;-52
2022/12/11 11:06:16;;;;;;;19.55;17.65;;;0.30;99.90;;;;;;5099303;28;20542;-56
2022/12/11 11:08:45;;;;;;;19.23;17.30;;;0.40;99.90;;;;;;5098947;28;20184;-53
2022/12/11 11:11:35;;;;;;;21.10;18.90;;;0.30;99.90;;;;;;5099165;28;20195;-48
2022/12/11 11:14:14;;;;;;;19.75;17.85;;;0.30;99.90;;;;;;5089582;28;20200;-49
2022/12/11 11:16:43;;;;;;;20.05;18.02;;;0.20;99.90;;;;;;5098559;28;20239;-49
2022/12/11 11:19:17;;;;;;;20.85;18.80;;;0.10;99.90;;;;;;5098678;28;20180;-53
2022/12/11 11:21:50;;;;;;;20.52;17.95;;;0.00;99.90;;;;;;5098362;28;20180;-51
2022/12/11 11:24:30;;;;;;;20.20;18.10;;;-0.10;99.90;;;;;;5099247;28;20498;-58
2022/12/11 11:26:56;;;;;;;20.23;18.33;;;-0.10;99.90;;;;;;5094448;28;20718;-53
2022/12/11 11:29:36;;;;;;;19.90;17.88;;;-0.10;99.90;;;;;;5092621;28;20197;-53
2022/12/11 11:32:16;;;;;;;22.92;19.42;;;-0.10;99.90;;;;;;5099230;28;20460;-48
2022/12/11 11:34:42;;;;;;;18.35;16.35;;;0.00;99.90;;;;;;5097265;28;20270;-50
2022/12/11 11:37:29;;;;;;;19.50;17.60;;;0.00;99.90;;;;;;5098330;28;20667;-49
2022/12/11 11:40:00;;;;;;;18.00;16.20;;;-0.10;99.90;;;;;;5099026;28;20624;-48
2022/12/11 11:42:42;;;;;;;18.65;16.77;;;0.00;99.90;;;;;;5098339;28;20180;-55
2022/12/11 11:45:20;;;;;;;19.58;17.50;;;0.00;99.90;;;;;;5098738;28;20182;-52
2022/12/11 11:48:08;;;;;;;18.50;16.40;;;0.10;99.90;;;;;;5099072;28;20175;-54
2022/12/11 11:50:35;;;;;;;17.08;15.43;;;0.20;99.90;;;;;;5097071;28;20411;-58
2022/12/11 11:53:31;;;;;;;18.05;16.35;;;0.10;99.90;;;;;;5097764;28;20193;-56
2022/12/11 11:56:16;;;;;;;17.77;15.90;;;0.10;99.90;;;;;;5096556;28;20227;-49
2022/12/11 11:59:04;;;;;;;20.00;17.98;;;0.00;99.90;;;;;;5096409;28;20596;-54
2022/12/11 12:01:30;;;;;;;19.20;17.23;;;-0.10;99.90;;;;;;5097678;28;20179;-54
2022/12/11 12:03:56;;;;;;;21.03;18.97;;;-0.20;99.90;;;;;;5096535;28;20184;-53
2022/12/11 12:06:30;;;;;;;19.87;17.97;;;-0.20;99.90;;;;;;5095844;28;20423;-47
2022/12/11 12:09:11;;;;;;;20.65;18.48;;;-0.20;99.90;;;;;;5102667;28;20433;-54
2022/12/11 12:12:05;;;;;;;20.10;18.10;;;-0.20;99.90;;;;;;5100354;28;20172;-51
2022/12/11 12:14:53;;;;;;;21.10;18.98;;;-0.20;99.90;;;;;;5103466;28;20276;-54
2022/12/11 12:17:34;;;;;;;19.77;17.67;;;-0.30;99.90;;;;;;5063768;28;20233;-53
2022/12/11 12:20:26;;;;;;;20.48;18.27;;;-0.30;99.90;;;;;;5095780;28;20655;-50
2022/12/11 12:23:17;;;;;;;20.85;18.73;;;-0.20;99.90;;;;;;5101552;28;20188;-48
2022/12/11 12:26:04;;;;;;;22.58;18.73;;;-0.20;99.90;;;;;;5102815;28;20181;-50
2022/12/11 12:29:20;;;;;;;20.70;18.50;;;-0.30;99.90;;;;;;5096973;28;20183;-47
2022/12/11 12:31:52;;;;;;;22.13;18.75;;;-0.40;99.90;;;;;;5067971;28;20216;-52
2022/12/11 12:34:18;;;;;;;20.17;18.08;;;-0.50;99.90;;;;;;5117399;27;20249;-52
2022/12/11 12:37:09;;;;;;;20.17;18.17;;;-0.50;99.90;;;;;;5101690;28;20200;-51
2022/12/11 12:40:06;;;;;;;19.83;17.75;;;-0.50;99.90;;;;;;5102947;28;20253;-55
2022/12/11 12:42:55;;;;;;;22.80;18.45;;;-0.60;99.90;;;;;;5100205;28;20217;-51
2022/12/11 12:45:33;;;;;;;21.90;19.63;;;-0.60;99.90;;;;;;5102743;28;20824;-49
2022/12/11 12:47:59;;;;;;;21.02;18.75;;;-0.60;99.90;;;;;;5100308;28;20212;-57
2022/12/11 12:50:32;;;;;;;21.57;18.17;;;-0.60;99.90;;;;;;5100582;28;20218;-51
2022/12/11 12:52:58;;;;;;;20.60;18.27;;;-0.50;99.90;;;;;;5100543;28;20433;-51
2022/12/11 12:55:30;;;;;;;21.38;18.83;;;-0.50;99.90;;;;;;5102570;28;20315;-51